Thompson, Missouri
Current Conditions -  °F | °C
As of 2:54 PM on Thursday 18 Dec 2014 (Local Time) from KCOU Reporting Station
Overcast Overcast  
Wind Chill: -2°   Ceiling: 800
Heat Index:   Visibility: 9mi
Dew Point: -1°   Wind: 5mph
Humidity: 89%   Direction: 100°E
Pressure: 30.19"   Gusts: NA
Location:  39.19°N, 91.98°W
Report Text: KCOU 182054Z 10004KT 9SM OVC008 01/M01 A3019 RMK AO2 SNE04 CIG 006V010 SLP231 P0000 60000 T00061011 56011
Loading
Personal Weather Stations






























Interactive Weather Map New forecast layout! Learn more

10-Day Weather Forecast

Advertisements
Track Severe Weather on mobile